Terminal Aerodrome Forecast
Issued by NWS Twin Cities, MN

Home | Current Version | Previous Version | Text Only | Print | Product List | Glossary On
Versions: 1 2 3 4 5 6 7 8 9 10 11 12 13 14 15 16 17 18 19 20
000
FTUS43 KMPX 280520
TAFSTC
TAF
KSTC 280520Z 2806/2906 15005KT P6SM SCT050 BKN150
     FM281000 12005KT P6SM SCT007 OVC030
     FM281600 13008KT P6SM SCT030 BKN050
     FM290000 12004KT P6SM BKN150=

USA.gov is the U.S. government's official web portal to all federal, state and local government web resources and services.